sensor_id;sensor_type;location;lat;lon;timestamp;temperature;humidity
17671;DHT22;8954;48.694;8.940;2022-08-07T00:01:19;13.40;91.70
17671;DHT22;8954;48.694;8.940;2022-08-07T00:03:45;13.30;91.70
17671;DHT22;8954;48.694;8.940;2022-08-07T00:06:11;13.30;91.80
17671;DHT22;8954;48.694;8.940;2022-08-07T00:08:38;13.30;92.00
17671;DHT22;8954;48.694;8.940;2022-08-07T00:11:04;13.40;92.00
17671;DHT22;8954;48.694;8.940;2022-08-07T00:13:31;13.40;92.30
17671;DHT22;8954;48.694;8.940;2022-08-07T00:15:57;13.40;92.00
17671;DHT22;8954;48.694;8.940;2022-08-07T00:18:26;13.40;92.20
17671;DHT22;8954;48.694;8.940;2022-08-07T00:20:58;13.30;92.10
17671;DHT22;8954;48.694;8.940;2022-08-07T00:23:24;13.30;92.00
17671;DHT22;8954;48.694;8.940;2022-08-07T00:25:50;13.30;92.30
17671;DHT22;8954;48.694;8.940;2022-08-07T00:28:16;13.30;92.60
17671;DHT22;8954;48.694;8.940;2022-08-07T00:30:41;13.30;92.70
17671;DHT22;8954;48.694;8.940;2022-08-07T00:33:07;13.20;93.00
17671;DHT22;8954;48.694;8.940;2022-08-07T00:35:33;13.10;93.30
17671;DHT22;8954;48.694;8.940;2022-08-07T00:37:59;13.00;93.40
17671;DHT22;8954;48.694;8.940;2022-08-07T00:40:25;12.90;93.60
17671;DHT22;8954;48.694;8.940;2022-08-07T00:42:51;12.90;93.70
17671;DHT22;8954;48.694;8.940;2022-08-07T00:45:17;12.80;93.70
17671;DHT22;8954;48.694;8.940;2022-08-07T00:47:43;12.80;93.90
17671;DHT22;8954;48.694;8.940;2022-08-07T00:50:08;12.70;93.90
17671;DHT22;8954;48.694;8.940;2022-08-07T00:52:34;12.70;94.20
17671;DHT22;8954;48.694;8.940;2022-08-07T00:55:00;12.60;94.50
17671;DHT22;8954;48.694;8.940;2022-08-07T00:57:26;12.60;95.00
17671;DHT22;8954;48.694;8.940;2022-08-07T00:59:52;12.60;95.20
17671;DHT22;8954;48.694;8.940;2022-08-07T01:02:17;12.60;95.40
17671;DHT22;8954;48.694;8.940;2022-08-07T01:04:44;12.60;95.20
17671;DHT22;8954;48.694;8.940;2022-08-07T01:07:10;12.50;95.00
17671;DHT22;8954;48.694;8.940;2022-08-07T01:09:36;12.70;95.20
17671;DHT22;8954;48.694;8.940;2022-08-07T01:12:02;12.60;95.60
17671;DHT22;8954;48.694;8.940;2022-08-07T01:14:28;12.60;95.90
17671;DHT22;8954;48.694;8.940;2022-08-07T01:16:54;12.50;95.90
17671;DHT22;8954;48.694;8.940;2022-08-07T01:19:21;12.50;96.20
17671;DHT22;8954;48.694;8.940;2022-08-07T01:21:49;12.40;96.40
17671;DHT22;8954;48.694;8.940;2022-08-07T01:24:16;12.40;96.60
17671;DHT22;8954;48.694;8.940;2022-08-07T01:26:42;12.40;96.80
17671;DHT22;8954;48.694;8.940;2022-08-07T01:29:08;12.40;97.00
17671;DHT22;8954;48.694;8.940;2022-08-07T01:31:36;12.40;97.10
17671;DHT22;8954;48.694;8.940;2022-08-07T01:34:02;12.40;97.20
17671;DHT22;8954;48.694;8.940;2022-08-07T01:36:28;12.30;97.40
17671;DHT22;8954;48.694;8.940;2022-08-07T01:38:55;12.30;97.60
17671;DHT22;8954;48.694;8.940;2022-08-07T01:41:21;12.20;97.60
17671;DHT22;8954;48.694;8.940;2022-08-07T01:43:49;12.20;97.80
17671;DHT22;8954;48.694;8.940;2022-08-07T01:46:16;12.20;98.10
17671;DHT22;8954;48.694;8.940;2022-08-07T01:48:45;12.20;97.90
17671;DHT22;8954;48.694;8.940;2022-08-07T01:51:22;12.30;98.00
17671;DHT22;8954;48.694;8.940;2022-08-07T01:53:54;12.30;98.10
17671;DHT22;8954;48.694;8.940;2022-08-07T01:56:24;12.30;98.30
17671;DHT22;8954;48.694;8.940;2022-08-07T01:58:54;12.40;98.20
17671;DHT22;8954;48.694;8.940;2022-08-07T02:01:27;12.40;98.00
17671;DHT22;8954;48.694;8.940;2022-08-07T02:04:16;12.50;97.90
17671;DHT22;8954;48.694;8.940;2022-08-07T02:06:43;12.50;98.10
17671;DHT22;8954;48.694;8.940;2022-08-07T02:09:13;12.50;97.80
17671;DHT22;8954;48.694;8.940;2022-08-07T02:11:43;12.50;97.90
17671;DHT22;8954;48.694;8.940;2022-08-07T02:14:09;12.50;98.00
17671;DHT22;8954;48.694;8.940;2022-08-07T02:16:37;12.40;98.50
17671;DHT22;8954;48.694;8.940;2022-08-07T02:19:06;12.40;98.60
17671;DHT22;8954;48.694;8.940;2022-08-07T02:21:36;12.40;98.90
17671;DHT22;8954;48.694;8.940;2022-08-07T02:24:04;12.40;98.90
17671;DHT22;8954;48.694;8.940;2022-08-07T02:26:34;12.30;98.90
17671;DHT22;8954;48.694;8.940;2022-08-07T02:29:02;12.30;99.30
17671;DHT22;8954;48.694;8.940;2022-08-07T02:31:30;12.20;99.70
17671;DHT22;8954;48.694;8.940;2022-08-07T02:33:57;12.10;99.90
17671;DHT22;8954;48.694;8.940;2022-08-07T02:36:25;12.10;99.90
17671;DHT22;8954;48.694;8.940;2022-08-07T02:38:52;12.10;99.90
17671;DHT22;8954;48.694;8.940;2022-08-07T02:41:18;12.10;99.90
17671;DHT22;8954;48.694;8.940;2022-08-07T02:43:44;12.10;99.90
17671;DHT22;8954;48.694;8.940;2022-08-07T02:46:10;12.00;99.90
17671;DHT22;8954;48.694;8.940;2022-08-07T02:48:37;12.00;99.90
17671;DHT22;8954;48.694;8.940;2022-08-07T02:51:07;12.00;99.90
17671;DHT22;8954;48.694;8.940;2022-08-07T02:53:34;12.00;99.90
17671;DHT22;8954;48.694;8.940;2022-08-07T02:56:03;12.00;99.90
17671;DHT22;8954;48.694;8.940;2022-08-07T02:58:30;12.00;99.90
17671;DHT22;8954;48.694;8.940;2022-08-07T03:00:58;12.00;99.90
17671;DHT22;8954;48.694;8.940;2022-08-07T03:03:27;11.90;99.90
17671;DHT22;8954;48.694;8.940;2022-08-07T03:05:56;11.90;99.90
17671;DHT22;8954;48.694;8.940;2022-08-07T03:08:23;11.80;99.90
17671;DHT22;8954;48.694;8.940;2022-08-07T03:10:49;11.80;99.90
17671;DHT22;8954;48.694;8.940;2022-08-07T03:13:15;11.70;99.90
17671;DHT22;8954;48.694;8.940;2022-08-07T03:15:42;11.70;99.90
17671;DHT22;8954;48.694;8.940;2022-08-07T03:18:09;11.70;99.90
17671;DHT22;8954;48.694;8.940;2022-08-07T03:20:35;11.70;99.90
17671;DHT22;8954;48.694;8.940;2022-08-07T03:23:02;11.60;99.90
17671;DHT22;8954;48.694;8.940;2022-08-07T03:25:31;11.60;99.90
17671;DHT22;8954;48.694;8.940;2022-08-07T03:27:59;11.60;99.90
17671;DHT22;8954;48.694;8.940;2022-08-07T03:30:25;11.60;99.90
17671;DHT22;8954;48.694;8.940;2022-08-07T03:32:52;11.60;99.90
17671;DHT22;8954;48.694;8.940;2022-08-07T03:35:23;11.60;99.90
17671;DHT22;8954;48.694;8.940;2022-08-07T03:37:52;11.60;99.90
17671;DHT22;8954;48.694;8.940;2022-08-07T03:40:19;11.60;99.90
17671;DHT22;8954;48.694;8.940;2022-08-07T03:42:45;11.60;99.90
17671;DHT22;8954;48.694;8.940;2022-08-07T03:45:11;11.60;99.90
17671;DHT22;8954;48.694;8.940;2022-08-07T03:47:37;11.50;99.90
17671;DHT22;8954;48.694;8.940;2022-08-07T03:50:04;11.50;99.90
17671;DHT22;8954;48.694;8.940;2022-08-07T03:52:31;11.50;99.90
17671;DHT22;8954;48.694;8.940;2022-08-07T03:54:58;11.40;99.90
17671;DHT22;8954;48.694;8.940;2022-08-07T03:57:25;11.40;99.90
17671;DHT22;8954;48.694;8.940;2022-08-07T03:59:52;11.40;99.90
17671;DHT22;8954;48.694;8.940;2022-08-07T04:02:18;11.40;99.90
17671;DHT22;8954;48.694;8.940;2022-08-07T04:04:44;11.30;99.90
17671;DHT22;8954;48.694;8.940;2022-08-07T04:07:10;11.30;99.90
17671;DHT22;8954;48.694;8.940;2022-08-07T04:09:36;11.20;99.90
17671;DHT22;8954;48.694;8.940;2022-08-07T04:12:03;11.20;99.90
17671;DHT22;8954;48.694;8.940;2022-08-07T04:14:30;11.20;99.90
17671;DHT22;8954;48.694;8.940;2022-08-07T04:16:56;11.20;99.90
17671;DHT22;8954;48.694;8.940;2022-08-07T04:19:22;11.20;99.90
17671;DHT22;8954;48.694;8.940;2022-08-07T04:21:51;11.20;99.90
17671;DHT22;8954;48.694;8.940;2022-08-07T04:24:18;11.20;99.90
17671;DHT22;8954;48.694;8.940;2022-08-07T04:26:44;11.30;99.90
17671;DHT22;8954;48.694;8.940;2022-08-07T04:29:10;11.40;99.90
17671;DHT22;8954;48.694;8.940;2022-08-07T04:31:39;11.40;99.90
17671;DHT22;8954;48.694;8.940;2022-08-07T04:34:06;11.60;99.90
17671;DHT22;8954;48.694;8.940;2022-08-07T04:36:32;11.60;99.90
17671;DHT22;8954;48.694;8.940;2022-08-07T04:38:59;11.70;99.90
17671;DHT22;8954;48.694;8.940;2022-08-07T04:41:25;11.70;99.90
17671;DHT22;8954;48.694;8.940;2022-08-07T04:43:51;11.80;99.90
17671;DHT22;8954;48.694;8.940;2022-08-07T04:54:12;12.20;99.90
17671;DHT22;8954;48.694;8.940;2022-08-07T04:59:20;12.40;99.90
17671;DHT22;8954;48.694;8.940;2022-08-07T05:02:11;12.60;99.90
17671;DHT22;8954;48.694;8.940;2022-08-07T05:07:22;12.80;99.90
17671;DHT22;8954;48.694;8.940;2022-08-07T05:10:03;13.00;99.90
17671;DHT22;8954;48.694;8.940;2022-08-07T05:13:01;13.20;99.90
17671;DHT22;8954;48.694;8.940;2022-08-07T05:15:41;13.30;99.90
17671;DHT22;8954;48.694;8.940;2022-08-07T05:18:18;13.50;99.90
17671;DHT22;8954;48.694;8.940;2022-08-07T05:20:47;13.60;99.90
17671;DHT22;8954;48.694;8.940;2022-08-07T05:26:03;13.90;99.90
17671;DHT22;8954;48.694;8.940;2022-08-07T05:28:31;14.10;99.90
17671;DHT22;8954;48.694;8.940;2022-08-07T05:30:58;14.30;99.90
17671;DHT22;8954;48.694;8.940;2022-08-07T05:33:24;14.50;99.90
17671;DHT22;8954;48.694;8.940;2022-08-07T05:35:52;14.70;99.90
17671;DHT22;8954;48.694;8.940;2022-08-07T05:38:19;14.80;99.90
17671;DHT22;8954;48.694;8.940;2022-08-07T05:40:46;14.90;99.90
17671;DHT22;8954;48.694;8.940;2022-08-07T05:43:13;15.10;99.90
17671;DHT22;8954;48.694;8.940;2022-08-07T05:45:40;15.20;99.90
17671;DHT22;8954;48.694;8.940;2022-08-07T05:48:07;15.20;99.90
17671;DHT22;8954;48.694;8.940;2022-08-07T05:50:33;15.30;99.90
17671;DHT22;8954;48.694;8.940;2022-08-07T05:53:02;15.40;99.90
17671;DHT22;8954;48.694;8.940;2022-08-07T05:55:29;15.60;99.90
17671;DHT22;8954;48.694;8.940;2022-08-07T05:57:59;15.70;99.90
17671;DHT22;8954;48.694;8.940;2022-08-07T06:00:26;15.80;99.60
17671;DHT22;8954;48.694;8.940;2022-08-07T06:02:53;16.10;99.50
17671;DHT22;8954;48.694;8.940;2022-08-07T06:05:21;16.20;99.70
17671;DHT22;8954;48.694;8.940;2022-08-07T06:07:48;16.40;99.70
17671;DHT22;8954;48.694;8.940;2022-08-07T06:10:14;16.60;99.60
17671;DHT22;8954;48.694;8.940;2022-08-07T06:12:40;16.80;99.90
17671;DHT22;8954;48.694;8.940;2022-08-07T06:15:08;16.90;99.90
17671;DHT22;8954;48.694;8.940;2022-08-07T06:17:35;17.00;99.90
17671;DHT22;8954;48.694;8.940;2022-08-07T06:20:01;17.30;99.90
17671;DHT22;8954;48.694;8.940;2022-08-07T06:22:28;17.30;99.90
17671;DHT22;8954;48.694;8.940;2022-08-07T06:24:57;17.40;99.90
17671;DHT22;8954;48.694;8.940;2022-08-07T06:27:24;17.60;99.90
17671;DHT22;8954;48.694;8.940;2022-08-07T06:29:50;17.80;99.90
17671;DHT22;8954;48.694;8.940;2022-08-07T06:32:16;18.00;99.90
17671;DHT22;8954;48.694;8.940;2022-08-07T06:34:41;18.20;99.90
17671;DHT22;8954;48.694;8.940;2022-08-07T06:37:07;18.30;99.90
17671;DHT22;8954;48.694;8.940;2022-08-07T06:39:33;18.50;99.90
17671;DHT22;8954;48.694;8.940;2022-08-07T06:42:06;18.70;99.90
17671;DHT22;8954;48.694;8.940;2022-08-07T06:44:34;18.80;99.90
17671;DHT22;8954;48.694;8.940;2022-08-07T06:47:01;19.00;99.90
17671;DHT22;8954;48.694;8.940;2022-08-07T06:49:27;19.20;99.90
17671;DHT22;8954;48.694;8.940;2022-08-07T06:51:54;19.30;99.90
17671;DHT22;8954;48.694;8.940;2022-08-07T06:54:24;19.50;99.90
17671;DHT22;8954;48.694;8.940;2022-08-07T06:56:50;19.60;99.90
17671;DHT22;8954;48.694;8.940;2022-08-07T06:59:25;19.70;99.90
17671;DHT22;8954;48.694;8.940;2022-08-07T07:01:55;19.90;99.90
17671;DHT22;8954;48.694;8.940;2022-08-07T07:04:23;20.10;99.90
17671;DHT22;8954;48.694;8.940;2022-08-07T07:06:49;20.20;99.90
17671;DHT22;8954;48.694;8.940;2022-08-07T07:09:24;20.40;99.90
17671;DHT22;8954;48.694;8.940;2022-08-07T07:12:09;20.40;99.90
17671;DHT22;8954;48.694;8.940;2022-08-07T07:15:00;20.60;99.90
17671;DHT22;8954;48.694;8.940;2022-08-07T07:19:59;20.90;99.20
17671;DHT22;8954;48.694;8.940;2022-08-07T07:22:27;20.90;98.50
17671;DHT22;8954;48.694;8.940;2022-08-07T07:24:54;21.10;98.40
17671;DHT22;8954;48.694;8.940;2022-08-07T07:27:23;21.20;97.70
17671;DHT22;8954;48.694;8.940;2022-08-07T07:29:53;21.30;96.80
17671;DHT22;8954;48.694;8.940;2022-08-07T07:32:23;21.50;96.70
17671;DHT22;8954;48.694;8.940;2022-08-07T07:34:53;21.60;96.10
17671;DHT22;8954;48.694;8.940;2022-08-07T07:37:21;21.70;95.50
17671;DHT22;8954;48.694;8.940;2022-08-07T07:39:51;21.90;95.40
17671;DHT22;8954;48.694;8.940;2022-08-07T07:42:21;22.00;94.00
17671;DHT22;8954;48.694;8.940;2022-08-07T07:44:48;22.00;92.90
17671;DHT22;8954;48.694;8.940;2022-08-07T07:47:14;22.10;92.80
17671;DHT22;8954;48.694;8.940;2022-08-07T07:49:43;22.20;92.50
17671;DHT22;8954;48.694;8.940;2022-08-07T07:52:10;22.40;94.10
17671;DHT22;8954;48.694;8.940;2022-08-07T07:54:39;22.40;92.70
17671;DHT22;8954;48.694;8.940;2022-08-07T07:57:08;22.40;92.10
17671;DHT22;8954;48.694;8.940;2022-08-07T07:59:37;22.60;92.00
17671;DHT22;8954;48.694;8.940;2022-08-07T08:02:08;22.70;91.50
17671;DHT22;8954;48.694;8.940;2022-08-07T08:04:36;22.70;90.80
17671;DHT22;8954;48.694;8.940;2022-08-07T08:07:02;22.80;90.10
17671;DHT22;8954;48.694;8.940;2022-08-07T08:09:29;22.90;90.20
17671;DHT22;8954;48.694;8.940;2022-08-07T08:11:57;22.90;90.40
17671;DHT22;8954;48.694;8.940;2022-08-07T08:14:23;23.00;90.60
17671;DHT22;8954;48.694;8.940;2022-08-07T08:16:50;23.20;90.00
17671;DHT22;8954;48.694;8.940;2022-08-07T08:19:22;23.30;88.50
17671;DHT22;8954;48.694;8.940;2022-08-07T08:21:50;23.40;84.90
17671;DHT22;8954;48.694;8.940;2022-08-07T08:24:43;23.40;86.20
17671;DHT22;8954;48.694;8.940;2022-08-07T08:27:32;23.60;86.20
17671;DHT22;8954;48.694;8.940;2022-08-07T08:30:07;23.80;85.40
17671;DHT22;8954;48.694;8.940;2022-08-07T08:32:56;23.90;83.90
17671;DHT22;8954;48.694;8.940;2022-08-07T08:35:25;24.00;82.00
17671;DHT22;8954;48.694;8.940;2022-08-07T08:37:56;24.20;78.50
17671;DHT22;8954;48.694;8.940;2022-08-07T08:40:34;24.20;78.10
17671;DHT22;8954;48.694;8.940;2022-08-07T08:48:52;24.50;80.20
17671;DHT22;8954;48.694;8.940;2022-08-07T08:51:25;24.80;75.20
17671;DHT22;8954;48.694;8.940;2022-08-07T08:54:19;25.10;73.70
17671;DHT22;8954;48.694;8.940;2022-08-07T08:56:47;25.50;73.00
17671;DHT22;8954;48.694;8.940;2022-08-07T08:59:32;26.40;71.60
17671;DHT22;8954;48.694;8.940;2022-08-07T09:04:58;28.40;64.80
17671;DHT22;8954;48.694;8.940;2022-08-07T09:07:44;29.40;62.90
17671;DHT22;8954;48.694;8.940;2022-08-07T09:10:27;30.40;60.90
17671;DHT22;8954;48.694;8.940;2022-08-07T09:21:35;33.80;53.50
17671;DHT22;8954;48.694;8.940;2022-08-07T09:27:07;35.40;50.20
17671;DHT22;8954;48.694;8.940;2022-08-07T09:35:58;38.10;46.10
17671;DHT22;8954;48.694;8.940;2022-08-07T09:50:52;38.80;42.80
17671;DHT22;8954;48.694;8.940;2022-08-07T09:53:21;38.70;42.20
17671;DHT22;8954;48.694;8.940;2022-08-07T09:59:09;38.90;43.40
17671;DHT22;8954;48.694;8.940;2022-08-07T10:46:24;44.00;34.60
17671;DHT22;8954;48.694;8.940;2022-08-07T10:51:31;43.20;34.80
17671;DHT22;8954;48.694;8.940;2022-08-07T11:00:06;42.90;34.50
17671;DHT22;8954;48.694;8.940;2022-08-07T11:02:45;44.00;33.80
17671;DHT22;8954;48.694;8.940;2022-08-07T11:11:22;44.40;33.60
17671;DHT22;8954;48.694;8.940;2022-08-07T11:17:00;45.20;32.00
17671;DHT22;8954;48.694;8.940;2022-08-07T11:22:30;45.50;32.30
17671;DHT22;8954;48.694;8.940;2022-08-07T11:25:04;45.60;31.90
17671;DHT22;8954;48.694;8.940;2022-08-07T11:30:06;45.70;31.40
17671;DHT22;8954;48.694;8.940;2022-08-07T11:35:18;46.30;31.30
17671;DHT22;8954;48.694;8.940;2022-08-07T11:41:12;46.50;31.50
17671;DHT22;8954;48.694;8.940;2022-08-07T12:06:36;46.80;31.70
17671;DHT22;8954;48.694;8.940;2022-08-07T12:09:18;47.40;31.20
17671;DHT22;8954;48.694;8.940;2022-08-07T12:12:03;48.10;30.70
17671;DHT22;8954;48.694;8.940;2022-08-07T12:14:30;47.60;31.00
17671;DHT22;8954;48.694;8.940;2022-08-07T12:17:10;47.70;31.30
17671;DHT22;8954;48.694;8.940;2022-08-07T12:19:46;47.60;30.70
17671;DHT22;8954;48.694;8.940;2022-08-07T12:25:24;47.30;31.30
17671;DHT22;8954;48.694;8.940;2022-08-07T12:28:14;47.40;31.10
17671;DHT22;8954;48.694;8.940;2022-08-07T12:30:43;47.20;31.40
17671;DHT22;8954;48.694;8.940;2022-08-07T12:33:13;47.20;32.30
17671;DHT22;8954;48.694;8.940;2022-08-07T12:35:44;47.20;31.00
17671;DHT22;8954;48.694;8.940;2022-08-07T12:38:12;46.80;31.70
17671;DHT22;8954;48.694;8.940;2022-08-07T12:40:41;47.00;31.40
17671;DHT22;8954;48.694;8.940;2022-08-07T12:43:10;46.80;31.80
17671;DHT22;8954;48.694;8.940;2022-08-07T12:45:48;47.20;31.30
17671;DHT22;8954;48.694;8.940;2022-08-07T12:51:25;47.40;31.80
17671;DHT22;8954;48.694;8.940;2022-08-07T12:54:03;47.20;31.60
17671;DHT22;8954;48.694;8.940;2022-08-07T12:56:35;47.20;32.10
17671;DHT22;8954;48.694;8.940;2022-08-07T12:59:03;46.70;31.80
17671;DHT22;8954;48.694;8.940;2022-08-07T13:04:55;46.70;32.50
17671;DHT22;8954;48.694;8.940;2022-08-07T13:07:47;46.20;32.70
17671;DHT22;8954;48.694;8.940;2022-08-07T13:10:35;46.40;32.40
17671;DHT22;8954;48.694;8.940;2022-08-07T13:16:26;47.70;31.40
17671;DHT22;8954;48.694;8.940;2022-08-07T13:22:01;47.80;31.50
17671;DHT22;8954;48.694;8.940;2022-08-07T13:24:43;47.00;31.50
17671;DHT22;8954;48.694;8.940;2022-08-07T13:27:20;46.90;32.00
17671;DHT22;8954;48.694;8.940;2022-08-07T13:30:08;46.70;32.60
17671;DHT22;8954;48.694;8.940;2022-08-07T13:32:54;46.80;32.60
17671;DHT22;8954;48.694;8.940;2022-08-07T13:35:35;46.90;32.10
17671;DHT22;8954;48.694;8.940;2022-08-07T13:41:47;47.20;31.70
17671;DHT22;8954;48.694;8.940;2022-08-07T13:44:24;47.20;32.00
17671;DHT22;8954;48.694;8.940;2022-08-07T13:46:58;47.20;32.10
17671;DHT22;8954;48.694;8.940;2022-08-07T13:49:27;46.40;31.70
17671;DHT22;8954;48.694;8.940;2022-08-07T13:51:57;45.80;32.70
17671;DHT22;8954;48.694;8.940;2022-08-07T13:54:29;46.40;32.90
17671;DHT22;8954;48.694;8.940;2022-08-07T13:56:57;46.80;32.40
17671;DHT22;8954;48.694;8.940;2022-08-07T13:59:29;46.50;32.50
17671;DHT22;8954;48.694;8.940;2022-08-07T14:02:20;46.70;32.60
17671;DHT22;8954;48.694;8.940;2022-08-07T14:04:50;46.90;32.40
17671;DHT22;8954;48.694;8.940;2022-08-07T14:07:22;46.90;32.30
17671;DHT22;8954;48.694;8.940;2022-08-07T14:09:56;47.00;32.10
17671;DHT22;8954;48.694;8.940;2022-08-07T14:18:01;46.40;32.70
17671;DHT22;8954;48.694;8.940;2022-08-07T14:20:31;47.10;32.10
17671;DHT22;8954;48.694;8.940;2022-08-07T14:23:23;47.60;32.10
17671;DHT22;8954;48.694;8.940;2022-08-07T14:26:13;47.50;32.20
17671;DHT22;8954;48.694;8.940;2022-08-07T14:28:44;47.30;31.90
17671;DHT22;8954;48.694;8.940;2022-08-07T14:31:11;46.90;31.80
17671;DHT22;8954;48.694;8.940;2022-08-07T14:33:39;47.00;32.30
17671;DHT22;8954;48.694;8.940;2022-08-07T14:36:10;46.90;32.60
17671;DHT22;8954;48.694;8.940;2022-08-07T14:38:38;46.80;32.50
17671;DHT22;8954;48.694;8.940;2022-08-07T14:41:06;47.10;32.50
17671;DHT22;8954;48.694;8.940;2022-08-07T14:43:39;46.30;32.50
17671;DHT22;8954;48.694;8.940;2022-08-07T14:46:06;46.40;32.70
17671;DHT22;8954;48.694;8.940;2022-08-07T14:48:35;46.60;32.60
17671;DHT22;8954;48.694;8.940;2022-08-07T14:51:11;47.00;32.40
17671;DHT22;8954;48.694;8.940;2022-08-07T14:53:42;46.40;32.50
17671;DHT22;8954;48.694;8.940;2022-08-07T14:56:13;46.80;32.30
17671;DHT22;8954;48.694;8.940;2022-08-07T14:58:44;46.80;32.20
17671;DHT22;8954;48.694;8.940;2022-08-07T15:01:13;46.60;32.30
17671;DHT22;8954;48.694;8.940;2022-08-07T15:03:42;46.40;32.10
17671;DHT22;8954;48.694;8.940;2022-08-07T15:06:11;46.30;33.20
17671;DHT22;8954;48.694;8.940;2022-08-07T15:08:43;45.80;32.90
17671;DHT22;8954;48.694;8.940;2022-08-07T15:11:20;45.30;33.10
17671;DHT22;8954;48.694;8.940;2022-08-07T15:14:02;45.00;33.80
17671;DHT22;8954;48.694;8.940;2022-08-07T15:16:40;45.20;33.60
17671;DHT22;8954;48.694;8.940;2022-08-07T15:19:12;44.70;33.70
17671;DHT22;8954;48.694;8.940;2022-08-07T15:21:47;44.60;33.70
17671;DHT22;8954;48.694;8.940;2022-08-07T15:24:19;44.70;34.00
17671;DHT22;8954;48.694;8.940;2022-08-07T15:26:50;44.80;33.60
17671;DHT22;8954;48.694;8.940;2022-08-07T15:29:20;44.50;33.80
17671;DHT22;8954;48.694;8.940;2022-08-07T15:31:51;44.40;33.60
17671;DHT22;8954;48.694;8.940;2022-08-07T15:34:17;44.20;33.80
17671;DHT22;8954;48.694;8.940;2022-08-07T15:36:45;44.20;34.30
17671;DHT22;8954;48.694;8.940;2022-08-07T15:39:13;43.80;34.30
17671;DHT22;8954;48.694;8.940;2022-08-07T15:41:58;43.60;34.80
17671;DHT22;8954;48.694;8.940;2022-08-07T15:44:27;43.70;33.80
17671;DHT22;8954;48.694;8.940;2022-08-07T15:47:02;43.50;34.40
17671;DHT22;8954;48.694;8.940;2022-08-07T15:49:31;43.50;34.80
17671;DHT22;8954;48.694;8.940;2022-08-07T15:52:00;43.70;34.30
17671;DHT22;8954;48.694;8.940;2022-08-07T15:54:38;43.50;34.40
17671;DHT22;8954;48.694;8.940;2022-08-07T15:57:09;43.30;34.50
17671;DHT22;8954;48.694;8.940;2022-08-07T15:59:36;43.20;34.70
17671;DHT22;8954;48.694;8.940;2022-08-07T16:02:11;43.00;34.80
17671;DHT22;8954;48.694;8.940;2022-08-07T16:04:38;42.80;37.90
17671;DHT22;8954;48.694;8.940;2022-08-07T16:07:06;42.10;35.40
17671;DHT22;8954;48.694;8.940;2022-08-07T16:09:46;41.70;35.00
17671;DHT22;8954;48.694;8.940;2022-08-07T16:12:29;41.60;35.70
17671;DHT22;8954;48.694;8.940;2022-08-07T16:26:09;40.70;41.80
17671;DHT22;8954;48.694;8.940;2022-08-07T17:04:39;37.90;38.10
17671;DHT22;8954;48.694;8.940;2022-08-07T17:07:20;37.20;38.80
17671;DHT22;8954;48.694;8.940;2022-08-07T17:09:53;37.10;38.90
17671;DHT22;8954;48.694;8.940;2022-08-07T17:12:42;37.00;39.20
17671;DHT22;8954;48.694;8.940;2022-08-07T17:17:51;36.80;39.60
17671;DHT22;8954;48.694;8.940;2022-08-07T17:36:39;31.30;45.20
17671;DHT22;8954;48.694;8.940;2022-08-07T17:42:00;28.90;48.10
17671;DHT22;8954;48.694;8.940;2022-08-07T17:44:37;28.00;49.20
17671;DHT22;8954;48.694;8.940;2022-08-07T17:49:40;26.90;51.30
17671;DHT22;8954;48.694;8.940;2022-08-07T17:52:17;26.60;51.10
17671;DHT22;8954;48.694;8.940;2022-08-07T17:54:49;26.40;52.10
17671;DHT22;8954;48.694;8.940;2022-08-07T17:57:32;26.20;53.00
17671;DHT22;8954;48.694;8.940;2022-08-07T18:00:05;26.00;52.70
17671;DHT22;8954;48.694;8.940;2022-08-07T18:02:54;25.80;53.80
17671;DHT22;8954;48.694;8.940;2022-08-07T18:05:35;25.50;53.90
17671;DHT22;8954;48.694;8.940;2022-08-07T18:08:09;25.40;53.60
17671;DHT22;8954;48.694;8.940;2022-08-07T18:11:05;25.40;53.70
17671;DHT22;8954;48.694;8.940;2022-08-07T18:18:50;25.00;54.50
17671;DHT22;8954;48.694;8.940;2022-08-07T18:21:41;24.90;54.70
17671;DHT22;8954;48.694;8.940;2022-08-07T18:24:22;24.70;54.60
17671;DHT22;8954;48.694;8.940;2022-08-07T18:34:52;23.90;56.90
17671;DHT22;8954;48.694;8.940;2022-08-07T18:37:42;23.80;57.40
17671;DHT22;8954;48.694;8.940;2022-08-07T18:46:20;23.20;57.80
17671;DHT22;8954;48.694;8.940;2022-08-07T18:48:57;23.10;58.10
17671;DHT22;8954;48.694;8.940;2022-08-07T18:57:20;22.60;59.30
17671;DHT22;8954;48.694;8.940;2022-08-07T19:00:07;22.50;59.80
17671;DHT22;8954;48.694;8.940;2022-08-07T19:02:58;22.30;60.30
17671;DHT22;8954;48.694;8.940;2022-08-07T19:08:01;21.90;61.10
17671;DHT22;8954;48.694;8.940;2022-08-07T19:10:31;21.80;61.20
17671;DHT22;8954;48.694;8.940;2022-08-07T19:15:50;21.60;61.30
17671;DHT22;8954;48.694;8.940;2022-08-07T19:18:36;21.50;61.90
17671;DHT22;8954;48.694;8.940;2022-08-07T19:21:25;21.40;61.80
17671;DHT22;8954;48.694;8.940;2022-08-07T19:23:55;21.40;61.60
17671;DHT22;8954;48.694;8.940;2022-08-07T19:26:25;21.30;61.80
17671;DHT22;8954;48.694;8.940;2022-08-07T19:29:00;21.20;61.90
17671;DHT22;8954;48.694;8.940;2022-08-07T19:31:33;21.10;62.50
17671;DHT22;8954;48.694;8.940;2022-08-07T19:34:00;21.10;63.20
17671;DHT22;8954;48.694;8.940;2022-08-07T19:36:36;21.00;63.10
17671;DHT22;8954;48.694;8.940;2022-08-07T19:39:03;20.90;64.10
17671;DHT22;8954;48.694;8.940;2022-08-07T19:41:43;20.80;65.00
17671;DHT22;8954;48.694;8.940;2022-08-07T19:44:14;20.60;65.10
17671;DHT22;8954;48.694;8.940;2022-08-07T19:46:45;20.60;66.60
17671;DHT22;8954;48.694;8.940;2022-08-07T19:49:21;20.50;67.50
17671;DHT22;8954;48.694;8.940;2022-08-07T19:51:51;20.30;67.80
17671;DHT22;8954;48.694;8.940;2022-08-07T19:54:19;20.20;68.70
17671;DHT22;8954;48.694;8.940;2022-08-07T19:56:49;20.10;68.70
17671;DHT22;8954;48.694;8.940;2022-08-07T19:59:25;19.90;66.80
17671;DHT22;8954;48.694;8.940;2022-08-07T20:01:54;20.30;67.40
17671;DHT22;8954;48.694;8.940;2022-08-07T20:04:45;19.60;67.70
17671;DHT22;8954;48.694;8.940;2022-08-07T20:07:13;19.50;72.60
17671;DHT22;8954;48.694;8.940;2022-08-07T20:09:44;19.30;74.00
17671;DHT22;8954;48.694;8.940;2022-08-07T20:12:11;19.20;69.80
17671;DHT22;8954;48.694;8.940;2022-08-07T20:14:43;19.10;70.60
17671;DHT22;8954;48.694;8.940;2022-08-07T20:17:11;19.00;73.80
17671;DHT22;8954;48.694;8.940;2022-08-07T20:19:39;18.90;79.50
17671;DHT22;8954;48.694;8.940;2022-08-07T20:22:10;18.90;80.20
17671;DHT22;8954;48.694;8.940;2022-08-07T20:24:42;18.70;80.90
17671;DHT22;8954;48.694;8.940;2022-08-07T20:27:09;18.70;83.00
17671;DHT22;8954;48.694;8.940;2022-08-07T20:29:43;18.60;82.70
17671;DHT22;8954;48.694;8.940;2022-08-07T20:32:48;18.50;83.20
17671;DHT22;8954;48.694;8.940;2022-08-07T20:35:14;18.50;83.50
17671;DHT22;8954;48.694;8.940;2022-08-07T20:37:47;18.40;82.90
17671;DHT22;8954;48.694;8.940;2022-08-07T20:40:16;18.40;83.10
17671;DHT22;8954;48.694;8.940;2022-08-07T20:42:46;18.20;82.00
17671;DHT22;8954;48.694;8.940;2022-08-07T20:45:14;18.20;81.80
17671;DHT22;8954;48.694;8.940;2022-08-07T20:47:44;18.20;81.50
17671;DHT22;8954;48.694;8.940;2022-08-07T20:50:11;18.10;82.20
17671;DHT22;8954;48.694;8.940;2022-08-07T20:52:37;18.00;82.00
17671;DHT22;8954;48.694;8.940;2022-08-07T20:55:05;17.90;82.30